RYR1T EGSS-LEAL
Flight info
| Callsign | RYR1T |
|---|---|
| Flight time | N/A |
| Altitude | 35000 |
| Route | NUGBO M183 SILVA Q41 COWLY UT71 VAPID UN859 SOPIL DCT BALAN DCT LMG DCT PIMQO DCT AGN DCT ANETO DCT POSSY DCT XIMPE DCT RIMES N860 VLC |
| Aircraft | B738/M-SDE2E3FGHIRWXY/LB1 |
Departure
| Time | 2026-05-08 08:18 |
|---|---|
| Airport | London Stansted Airport (EGSS) |
Arrival
| Time | N/A |
|---|---|
| Airport | Alicante-Elche Miguel Hernández Airport (LEAL) |
| Time | Latitude | Longitude | Altitude | Speed | Heading |
|---|---|---|---|---|---|
| 2026-05-08 07:32 | 51.89624 | 0.26580 | 348 ft | 0 kts | 42° |
| 2026-05-08 08:01 | 51.89613 | 0.26562 | 355 ft | 4 kts | 42° |
| 2026-05-08 08:01 | 51.89596 | 0.26538 | 355 ft | 3 kts | 42° |
| 2026-05-08 08:02 | 51.89576 | 0.26514 | 357 ft | 4 kts | 11° |
| 2026-05-08 08:02 | 51.89557 | 0.26522 | 356 ft | 3 kts | 313° |
| 2026-05-08 08:02 | 51.89545 | 0.26543 | 355 ft | 0 kts | 313° |
| 2026-05-08 08:06 | 51.89546 | 0.26543 | 355 ft | 1 kts | 313° |
| 2026-05-08 08:07 | 51.89563 | 0.26513 | 357 ft | 7 kts | 313° |
| 2026-05-08 08:07 | 51.89606 | 0.26437 | 351 ft | 12 kts | 313° |
| 2026-05-08 08:07 | 51.89669 | 0.26330 | 348 ft | 14 kts | 314° |
| 2026-05-08 08:07 | 51.89731 | 0.26221 | 353 ft | 11 kts | 312° |
| 2026-05-08 08:08 | 51.89739 | 0.26124 | 348 ft | 9 kts | 234° |
| 2026-05-08 08:08 | 51.89691 | 0.26052 | 353 ft | 9 kts | 223° |
| 2026-05-08 08:08 | 51.89644 | 0.25979 | 351 ft | 10 kts | 224° |
| 2026-05-08 08:08 | 51.89590 | 0.25899 | 351 ft | 11 kts | 223° |
| 2026-05-08 08:09 | 51.89531 | 0.25810 | 348 ft | 12 kts | 223° |
| 2026-05-08 08:09 | 51.89466 | 0.25714 | 349 ft | 13 kts | 222° |
| 2026-05-08 08:09 | 51.89395 | 0.25607 | 352 ft | 15 kts | 223° |
| 2026-05-08 08:09 | 51.89317 | 0.25490 | 350 ft | 15 kts | 223° |
| 2026-05-08 08:10 | 51.89240 | 0.25375 | 351 ft | 16 kts | 223° |
| 2026-05-08 08:10 | 51.89147 | 0.25236 | 348 ft | 19 kts | 223° |
| 2026-05-08 08:10 | 51.89052 | 0.25090 | 355 ft | 19 kts | 223° |
| 2026-05-08 08:10 | 51.88959 | 0.24951 | 348 ft | 18 kts | 222° |
| 2026-05-08 08:11 | 51.88865 | 0.24811 | 352 ft | 19 kts | 223° |
| 2026-05-08 08:11 | 51.88770 | 0.24668 | 348 ft | 18 kts | 223° |
| 2026-05-08 08:11 | 51.88679 | 0.24532 | 348 ft | 18 kts | 223° |
| 2026-05-08 08:11 | 51.88590 | 0.24399 | 348 ft | 17 kts | 223° |
| 2026-05-08 08:12 | 51.88505 | 0.24271 | 348 ft | 16 kts | 223° |
| 2026-05-08 08:12 | 51.88423 | 0.24147 | 354 ft | 16 kts | 223° |
| 2026-05-08 08:12 | 51.88344 | 0.24028 | 350 ft | 15 kts | 223° |
| 2026-05-08 08:12 | 51.88268 | 0.23915 | 351 ft | 15 kts | 223° |
| 2026-05-08 08:13 | 51.88191 | 0.23800 | 348 ft | 15 kts | 223° |
| 2026-05-08 08:13 | 51.88114 | 0.23685 | 350 ft | 15 kts | 223° |
| 2026-05-08 08:13 | 51.88041 | 0.23575 | 348 ft | 14 kts | 223° |
| 2026-05-08 08:13 | 51.87971 | 0.23469 | 348 ft | 13 kts | 223° |
| 2026-05-08 08:14 | 51.87904 | 0.23369 | 351 ft | 13 kts | 222° |
| 2026-05-08 08:14 | 51.87873 | 0.23267 | 348 ft | 10 kts | 282° |
| 2026-05-08 08:14 | 51.87915 | 0.23177 | 351 ft | 10 kts | 307° |
| 2026-05-08 08:14 | 51.87906 | 0.23079 | 348 ft | 10 kts | 226° |
| 2026-05-08 08:15 | 51.87853 | 0.22995 | 348 ft | 13 kts | 224° |
| 2026-05-08 08:15 | 51.87770 | 0.22870 | 351 ft | 19 kts | 222° |
| 2026-05-08 08:15 | 51.87669 | 0.22720 | 348 ft | 20 kts | 223° |
| 2026-05-08 08:15 | 51.87571 | 0.22573 | 347 ft | 19 kts | 223° |
| 2026-05-08 08:16 | 51.87474 | 0.22427 | 339 ft | 19 kts | 223° |
| 2026-05-08 08:16 | 51.87405 | 0.22295 | 335 ft | 12 kts | 251° |
| 2026-05-08 08:16 | 51.87421 | 0.22171 | 334 ft | 12 kts | 308° |
| 2026-05-08 08:16 | 51.87481 | 0.22068 | 335 ft | 13 kts | 313° |
| 2026-05-08 08:17 | 51.87516 | 0.22021 | 335 ft | 5 kts | 352° |
| 2026-05-08 08:17 | 51.87550 | 0.22056 | 332 ft | 10 kts | 43° |
| 2026-05-08 08:17 | 51.87748 | 0.22353 | 339 ft | 73 kts | 43° |
| 2026-05-08 08:17 | 51.88285 | 0.23158 | 337 ft | 135 kts | 43° |
| 2026-05-08 08:18 | 51.89080 | 0.24342 | 542 ft | 166 kts | 46° |
| 2026-05-08 08:18 | 51.89364 | 0.24774 | 781 ft | 165 kts | 46° |
| 2026-05-08 08:18 | 51.90809 | 0.26974 | 1907 ft | 177 kts | 46° |
| 2026-05-08 08:18 | 51.91778 | 0.28435 | 2188 ft | 204 kts | 45° |
| 2026-05-08 08:19 | 51.93024 | 0.29753 | 2462 ft | 225 kts | 21° |
| 2026-05-08 08:19 | 51.94636 | 0.30011 | 2625 ft | 251 kts | 349° |
| 2026-05-08 08:19 | 51.96233 | 0.28703 | 3004 ft | 266 kts | 313° |
| 2026-05-08 08:19 | 51.97093 | 0.26100 | 3752 ft | 264 kts | 281° |
| 2026-05-08 08:20 | 51.97415 | 0.23152 | 4492 ft | 268 kts | 276° |
| 2026-05-08 08:20 | 51.97658 | 0.20128 | 5197 ft | 273 kts | 276° |
| 2026-05-08 08:20 | 51.97904 | 0.17064 | 5971 ft | 274 kts | 276° |
| 2026-05-08 08:20 | 51.98175 | 0.13984 | 6680 ft | 279 kts | 277° |
| 2026-05-08 08:21 | 51.98484 | 0.10881 | 7487 ft | 276 kts | 278° |
| 2026-05-08 08:21 | 51.98804 | 0.07848 | 8386 ft | 271 kts | 278° |
| 2026-05-08 08:21 | 51.98871 | 0.04818 | 9186 ft | 269 kts | 259° |
| 2026-05-08 08:21 | 51.98466 | 0.01835 | 9873 ft | 273 kts | 257° |
| 2026-05-08 08:22 | 51.98056 | -0.01202 | 10454 ft | 281 kts | 257° |
| 2026-05-08 08:22 | 51.97634 | -0.04422 | 10611 ft | 302 kts | 257° |
| 2026-05-08 08:22 | 51.97188 | -0.07863 | 10841 ft | 320 kts | 257° |
| 2026-05-08 08:22 | 51.96729 | -0.11393 | 11351 ft | 327 kts | 257° |
| 2026-05-08 08:23 | 51.96256 | -0.15029 | 11994 ft | 330 kts | 257° |
| 2026-05-08 08:23 | 51.95778 | -0.18689 | 12674 ft | 333 kts | 257° |
| 2026-05-08 08:23 | 51.95294 | -0.22386 | 13341 ft | 337 kts | 257° |
| 2026-05-08 08:23 | 51.94803 | -0.26130 | 13997 ft | 342 kts | 257° |
| 2026-05-08 08:24 | 51.94305 | -0.29921 | 14616 ft | 345 kts | 257° |
| 2026-05-08 08:24 | 51.93802 | -0.33743 | 15268 ft | 348 kts | 257° |
| 2026-05-08 08:24 | 51.93293 | -0.37602 | 15898 ft | 351 kts | 256° |
| 2026-05-08 08:24 | 51.92777 | -0.41497 | 16534 ft | 355 kts | 256° |
| 2026-05-08 08:25 | 51.92255 | -0.45433 | 17162 ft | 359 kts | 256° |
| 2026-05-08 08:25 | 51.91726 | -0.49405 | 17785 ft | 363 kts | 256° |
| 2026-05-08 08:25 | 51.91090 | -0.53330 | 18367 ft | 365 kts | 245° |
| 2026-05-08 08:25 | 51.89615 | -0.56640 | 18866 ft | 366 kts | 220° |
| 2026-05-08 08:26 | 51.87477 | -0.58854 | 19450 ft | 367 kts | 206° |
| 2026-05-08 08:26 | 51.85154 | -0.60603 | 19979 ft | 370 kts | 204° |
| 2026-05-08 08:26 | 51.82786 | -0.62323 | 20466 ft | 374 kts | 204° |
| 2026-05-08 08:26 | 51.80399 | -0.64053 | 20983 ft | 378 kts | 205° |
| 2026-05-08 08:27 | 51.77993 | -0.65807 | 21487 ft | 381 kts | 205° |
| 2026-05-08 08:27 | 51.75567 | -0.67589 | 21975 ft | 384 kts | 205° |
| 2026-05-08 08:27 | 51.73125 | -0.69391 | 22466 ft | 388 kts | 205° |
| 2026-05-08 08:27 | 51.70666 | -0.71213 | 22966 ft | 391 kts | 205° |
| 2026-05-08 08:28 | 51.68180 | -0.73057 | 23442 ft | 394 kts | 205° |
| 2026-05-08 08:28 | 51.65684 | -0.74909 | 23861 ft | 397 kts | 205° |
| 2026-05-08 08:28 | 51.63155 | -0.76784 | 24268 ft | 400 kts | 205° |
| 2026-05-08 08:28 | 51.60648 | -0.78641 | 24672 ft | 402 kts | 205° |
| 2026-05-08 08:29 | 51.58094 | -0.80530 | 25077 ft | 405 kts | 205° |
| 2026-05-08 08:29 | 51.55526 | -0.82427 | 25443 ft | 408 kts | 205° |
| 2026-05-08 08:29 | 51.52934 | -0.84340 | 25802 ft | 411 kts | 205° |
| 2026-05-08 08:29 | 51.50327 | -0.86261 | 26171 ft | 413 kts | 205° |
| 2026-05-08 08:30 | 51.47702 | -0.88192 | 26537 ft | 416 kts | 205° |
| 2026-05-08 08:30 | 51.45063 | -0.90132 | 26886 ft | 418 kts | 205° |
| 2026-05-08 08:30 | 51.39732 | -0.94041 | 27559 ft | 424 kts | 206° |
| 2026-05-08 08:31 | 51.37044 | -0.96009 | 27887 ft | 427 kts | 206° |
| 2026-05-08 08:31 | 51.34307 | -0.98010 | 27918 ft | 437 kts | 206° |
| 2026-05-08 08:31 | 51.31556 | -1.00020 | 28107 ft | 442 kts | 206° |
| 2026-05-08 08:31 | 51.28736 | -1.02015 | 28459 ft | 444 kts | 201° |
| 2026-05-08 08:32 | 51.25701 | -1.03023 | 28734 ft | 452 kts | 183° |
| 2026-05-08 08:32 | 51.22563 | -1.02486 | 29027 ft | 457 kts | 165° |
| 2026-05-08 08:32 | 51.19604 | -1.00578 | 29325 ft | 460 kts | 155° |
| 2026-05-08 08:32 | 51.16706 | -0.98377 | 29576 ft | 464 kts | 155° |
| 2026-05-08 08:33 | 51.13779 | -0.96163 | 29799 ft | 468 kts | 155° |
| 2026-05-08 08:33 | 51.10819 | -0.93957 | 30134 ft | 467 kts | 156° |
| 2026-05-08 08:33 | 51.07936 | -0.91840 | 31213 ft | 447 kts | 156° |
| 2026-05-08 08:33 | 51.05122 | -0.89798 | 31751 ft | 443 kts | 157° |
| 2026-05-08 08:34 | 50.99419 | -0.85696 | 31872 ft | 455 kts | 157° |
| 2026-05-08 08:34 | 50.96567 | -0.83646 | 32098 ft | 457 kts | 157° |
| 2026-05-08 08:34 | 50.93675 | -0.81567 | 32499 ft | 455 kts | 157° |
| 2026-05-08 08:35 | 50.90800 | -0.79503 | 32838 ft | 454 kts | 157° |
| 2026-05-08 08:35 | 50.87920 | -0.77439 | 33079 ft | 455 kts | 157° |
| 2026-05-08 08:35 | 50.85042 | -0.75311 | 33251 ft | 458 kts | 153° |
| 2026-05-08 08:35 | 50.82289 | -0.72732 | 33466 ft | 460 kts | 149° |
| 2026-05-08 08:36 | 50.80498 | -0.70910 | 33663 ft | 460 kts | 148° |
| 2026-05-08 08:36 | 50.77831 | -0.68126 | 33970 ft | 459 kts | 148° |
| 2026-05-08 08:36 | 50.75165 | -0.65329 | 34200 ft | 460 kts | 148° |
| 2026-05-08 08:36 | 50.72498 | -0.62550 | 34394 ft | 460 kts | 148° |
| 2026-05-08 08:37 | 50.69822 | -0.59791 | 34649 ft | 459 kts | 149° |
| 2026-05-08 08:37 | 50.67135 | -0.57047 | 34910 ft | 457 kts | 149° |
| 2026-05-08 08:37 | 50.64461 | -0.54334 | 35079 ft | 458 kts | 149° |
| 2026-05-08 08:37 | 50.61764 | -0.51609 | 35064 ft | 462 kts | 149° |
| 2026-05-08 08:38 | 50.56379 | -0.46184 | 35061 ft | 461 kts | 149° |
| 2026-05-08 08:38 | 50.50994 | -0.40769 | 35071 ft | 457 kts | 149° |
| 2026-05-08 08:39 | 50.45644 | -0.35404 | 35074 ft | 455 kts | 149° |
| 2026-05-08 08:39 | 50.40319 | -0.30077 | 35061 ft | 453 kts | 149° |
| 2026-05-08 08:40 | 50.34951 | -0.24723 | 35089 ft | 461 kts | 149° |
| 2026-05-08 08:40 | 50.29545 | -0.19344 | 35081 ft | 465 kts | 149° |
| 2026-05-08 08:41 | 50.24064 | -0.13903 | 35079 ft | 466 kts | 149° |
| 2026-05-08 08:41 | 50.18585 | -0.08476 | 35067 ft | 467 kts | 150° |
| 2026-05-08 08:42 | 50.13128 | -0.03089 | 35074 ft | 467 kts | 150° |
| 2026-05-08 08:42 | 50.07328 | 0.01234 | 35084 ft | 458 kts | 168° |
| 2026-05-08 08:43 | 50.01220 | 0.03566 | 35069 ft | 449 kts | 169° |
| 2026-05-08 08:43 | 49.95141 | 0.05844 | 35061 ft | 449 kts | 169° |
| 2026-05-08 08:44 | 49.89119 | 0.08173 | 35075 ft | 449 kts | 169° |
| 2026-05-08 08:44 | 49.83057 | 0.10544 | 35072 ft | 450 kts | 169° |
| 2026-05-08 08:45 | 49.76932 | 0.12937 | 35070 ft | 452 kts | 169° |
| 2026-05-08 08:45 | 49.70921 | 0.15277 | 35062 ft | 453 kts | 169° |
| 2026-05-08 08:46 | 49.64796 | 0.17682 | 35080 ft | 455 kts | 169° |
| 2026-05-08 08:46 | 49.58662 | 0.20174 | 35079 ft | 457 kts | 168° |
| 2026-05-08 08:47 | 49.52503 | 0.22678 | 35080 ft | 458 kts | 168° |
| 2026-05-08 08:47 | 49.46332 | 0.25172 | 35044 ft | 459 kts | 169° |
| 2026-05-08 08:48 | 49.40142 | 0.27664 | 35053 ft | 460 kts | 169° |
| 2026-05-08 08:48 | 49.33979 | 0.30140 | 35048 ft | 461 kts | 169° |
| 2026-05-08 08:49 | 49.27767 | 0.32658 | 35036 ft | 462 kts | 169° |
| 2026-05-08 08:49 | 49.21552 | 0.35276 | 35042 ft | 463 kts | 168° |
| 2026-05-08 08:50 | 49.15338 | 0.37902 | 35042 ft | 463 kts | 168° |
| 2026-05-08 08:50 | 49.09219 | 0.40470 | 35041 ft | 464 kts | 169° |
| 2026-05-08 08:51 | 49.02990 | 0.43072 | 35045 ft | 464 kts | 169° |
| 2026-05-08 08:51 | 48.96766 | 0.45665 | 35054 ft | 464 kts | 169° |
| 2026-05-08 08:52 | 48.90546 | 0.48251 | 35039 ft | 463 kts | 169° |
| 2026-05-08 08:52 | 48.84338 | 0.50828 | 35035 ft | 461 kts | 169° |
| 2026-05-08 08:53 | 48.78193 | 0.53365 | 35034 ft | 460 kts | 169° |
| 2026-05-08 08:53 | 48.72013 | 0.55795 | 35035 ft | 458 kts | 170° |
| 2026-05-08 08:54 | 48.65851 | 0.58178 | 35036 ft | 456 kts | 170° |
| 2026-05-08 08:54 | 48.59698 | 0.60574 | 35022 ft | 456 kts | 170° |
| 2026-05-08 08:55 | 48.53555 | 0.62960 | 35029 ft | 456 kts | 170° |
| 2026-05-08 08:55 | 48.47383 | 0.65405 | 35032 ft | 458 kts | 169° |
| 2026-05-08 08:56 | 48.41251 | 0.67912 | 35012 ft | 460 kts | 169° |
| 2026-05-08 08:56 | 48.35047 | 0.70442 | 35030 ft | 462 kts | 169° |
| 2026-05-08 08:57 | 48.28801 | 0.72975 | 35028 ft | 465 kts | 169° |
| 2026-05-08 08:57 | 48.22570 | 0.75475 | 35034 ft | 467 kts | 170° |
| 2026-05-08 08:58 | 48.16264 | 0.77946 | 35017 ft | 469 kts | 170° |
| 2026-05-08 08:58 | 48.09936 | 0.80421 | 35025 ft | 470 kts | 170° |
| 2026-05-08 08:59 | 48.03606 | 0.82904 | 35018 ft | 470 kts | 170° |
| 2026-05-08 08:59 | 47.97307 | 0.85373 | 35017 ft | 469 kts | 170° |
| 2026-05-08 09:00 | 47.90986 | 0.87848 | 35019 ft | 468 kts | 170° |
| 2026-05-08 09:00 | 47.84698 | 0.90300 | 35014 ft | 466 kts | 170° |
| 2026-05-08 09:01 | 47.78439 | 0.92722 | 34989 ft | 463 kts | 170° |
| 2026-05-08 09:01 | 47.72244 | 0.95107 | 35005 ft | 461 kts | 170° |
| 2026-05-08 09:02 | 47.66034 | 0.97500 | 35019 ft | 460 kts | 170° |
| 2026-05-08 09:02 | 47.59840 | 0.99887 | 35007 ft | 459 kts | 170° |
| 2026-05-08 09:03 | 47.53694 | 1.02252 | 35003 ft | 459 kts | 170° |
| 2026-05-08 09:03 | 47.47509 | 1.04626 | 35012 ft | 459 kts | 170° |
| 2026-05-08 09:04 | 47.41272 | 1.06469 | 35002 ft | 453 kts | 183° |
| 2026-05-08 09:04 | 47.34986 | 1.06334 | 34984 ft | 451 kts | 187° |
| 2026-05-08 09:05 | 47.28736 | 1.06082 | 34995 ft | 453 kts | 187° |
| 2026-05-08 09:05 | 47.22412 | 1.05909 | 34996 ft | 455 kts | 186° |
| 2026-05-08 09:06 | 47.16054 | 1.05773 | 34976 ft | 457 kts | 186° |
| 2026-05-08 09:06 | 47.09726 | 1.05644 | 34992 ft | 457 kts | 186° |
| 2026-05-08 09:07 | 47.03345 | 1.05505 | 34990 ft | 458 kts | 186° |
| 2026-05-08 09:07 | 46.96975 | 1.05279 | 34990 ft | 457 kts | 187° |
| 2026-05-08 09:08 | 46.90642 | 1.04973 | 34983 ft | 456 kts | 187° |
| 2026-05-08 09:08 | 46.84303 | 1.04681 | 34983 ft | 455 kts | 187° |
| 2026-05-08 09:09 | 46.77971 | 1.04406 | 34986 ft | 454 kts | 187° |
| 2026-05-08 09:09 | 46.71699 | 1.04068 | 34986 ft | 452 kts | 188° |
| 2026-05-08 09:10 | 46.65416 | 1.03636 | 34984 ft | 451 kts | 188° |
| 2026-05-08 09:10 | 46.59131 | 1.03233 | 34986 ft | 450 kts | 188° |
| 2026-05-08 09:11 | 46.52905 | 1.02848 | 34968 ft | 450 kts | 188° |
| 2026-05-08 09:11 | 46.46647 | 1.02456 | 34981 ft | 449 kts | 188° |
| 2026-05-08 09:12 | 46.40432 | 1.02063 | 34982 ft | 449 kts | 188° |
| 2026-05-08 09:12 | 46.34182 | 1.01676 | 34971 ft | 449 kts | 188° |
| 2026-05-08 09:13 | 46.27928 | 1.01294 | 34981 ft | 449 kts | 188° |
| 2026-05-08 09:13 | 46.21713 | 1.00915 | 34981 ft | 449 kts | 188° |
| 2026-05-08 09:14 | 46.15464 | 1.00535 | 34968 ft | 449 kts | 188° |
| 2026-05-08 09:14 | 46.09216 | 1.00157 | 34982 ft | 449 kts | 188° |
| 2026-05-08 09:15 | 46.03012 | 0.99783 | 34991 ft | 449 kts | 188° |
| 2026-05-08 09:15 | 45.96755 | 0.99407 | 34992 ft | 449 kts | 188° |
| 2026-05-08 09:16 | 45.90556 | 0.99037 | 34987 ft | 448 kts | 188° |
| 2026-05-08 09:16 | 45.84317 | 0.98666 | 34993 ft | 448 kts | 188° |
| 2026-05-08 09:17 | 45.78078 | 0.98288 | 34986 ft | 448 kts | 188° |
| 2026-05-08 09:17 | 45.71853 | 0.97904 | 34987 ft | 448 kts | 188° |
| 2026-05-08 09:18 | 45.65625 | 0.97526 | 34971 ft | 447 kts | 188° |
| 2026-05-08 09:18 | 45.59398 | 0.97154 | 34975 ft | 447 kts | 188° |
| 2026-05-08 09:19 | 45.53212 | 0.96787 | 34964 ft | 446 kts | 188° |
| 2026-05-08 09:19 | 45.47007 | 0.96420 | 34972 ft | 445 kts | 188° |
| 2026-05-08 09:20 | 45.40809 | 0.96054 | 34971 ft | 444 kts | 188° |
| 2026-05-08 09:20 | 45.34666 | 0.95692 | 34965 ft | 443 kts | 188° |
| 2026-05-08 09:21 | 45.28492 | 0.95331 | 34967 ft | 443 kts | 188° |
| 2026-05-08 09:23 | 45.07040 | 0.94063 | 34964 ft | 439 kts | 188° |
| 2026-05-08 09:23 | 45.00934 | 0.93699 | 34968 ft | 438 kts | 188° |
| 2026-05-08 09:24 | 44.94843 | 0.93342 | 34965 ft | 437 kts | 188° |
| 2026-05-08 09:24 | 44.89789 | 0.93048 | 34972 ft | 437 kts | 188° |
| 2026-05-08 09:25 | 44.83725 | 0.92696 | 34960 ft | 436 kts | 188° |
| 2026-05-08 09:25 | 44.76684 | 0.92287 | 34965 ft | 435 kts | 188° |
| 2026-05-08 09:26 | 44.71622 | 0.91994 | 34966 ft | 434 kts | 188° |
| 2026-05-08 09:26 | 44.65592 | 0.91645 | 34965 ft | 434 kts | 188° |
| 2026-05-08 09:27 | 44.59595 | 0.91300 | 34951 ft | 434 kts | 188° |
| 2026-05-08 09:27 | 44.53571 | 0.90954 | 34958 ft | 433 kts | 188° |
| 2026-05-08 09:28 | 44.47540 | 0.90608 | 34965 ft | 433 kts | 188° |
| 2026-05-08 09:28 | 44.41518 | 0.90263 | 34935 ft | 432 kts | 188° |
| 2026-05-08 09:29 | 44.35543 | 0.89923 | 34952 ft | 431 kts | 188° |
| 2026-05-08 09:29 | 44.29559 | 0.89582 | 34963 ft | 430 kts | 188° |
| 2026-05-08 09:30 | 44.23580 | 0.89242 | 34967 ft | 429 kts | 188° |
| 2026-05-08 09:30 | 44.17615 | 0.88904 | 34963 ft | 427 kts | 188° |
| 2026-05-08 09:31 | 44.11667 | 0.88569 | 34964 ft | 426 kts | 188° |
| 2026-05-08 09:31 | 44.05785 | 0.88238 | 34959 ft | 425 kts | 188° |
| 2026-05-08 09:32 | 43.99858 | 0.87907 | 34949 ft | 424 kts | 188° |
| 2026-05-08 09:32 | 43.94008 | 0.87583 | 34952 ft | 423 kts | 188° |
| 2026-05-08 09:33 | 43.88144 | 0.87177 | 34953 ft | 419 kts | 192° |
| 2026-05-08 09:33 | 43.82435 | 0.85737 | 34938 ft | 415 kts | 197° |
| 2026-05-08 09:34 | 43.76823 | 0.84131 | 34943 ft | 414 kts | 197° |
| 2026-05-08 09:34 | 43.71183 | 0.82563 | 34951 ft | 413 kts | 196° |
| 2026-05-08 09:35 | 43.65529 | 0.81036 | 34944 ft | 413 kts | 196° |
| 2026-05-08 09:35 | 43.59886 | 0.79530 | 34951 ft | 412 kts | 196° |
| 2026-05-08 09:36 | 43.54293 | 0.78044 | 34942 ft | 412 kts | 196° |
| 2026-05-08 09:36 | 43.48669 | 0.76551 | 34942 ft | 411 kts | 196° |
| 2026-05-08 09:37 | 43.43042 | 0.75060 | 34951 ft | 411 kts | 195° |
| 2026-05-08 09:37 | 43.37428 | 0.73576 | 34936 ft | 410 kts | 195° |
| 2026-05-08 09:38 | 43.31829 | 0.72098 | 34937 ft | 409 kts | 195° |
| 2026-05-08 09:38 | 43.26283 | 0.70637 | 34938 ft | 408 kts | 195° |
| 2026-05-08 09:39 | 43.20717 | 0.69173 | 34928 ft | 407 kts | 195° |
| 2026-05-08 09:39 | 43.15159 | 0.67714 | 34937 ft | 405 kts | 195° |
| 2026-05-08 09:40 | 43.09623 | 0.66264 | 34942 ft | 405 kts | 195° |
| 2026-05-08 09:40 | 43.04119 | 0.64825 | 34949 ft | 404 kts | 195° |
| 2026-05-08 09:41 | 42.98580 | 0.63379 | 34952 ft | 404 kts | 195° |
| 2026-05-08 09:41 | 42.93057 | 0.61941 | 34937 ft | 403 kts | 194° |
| 2026-05-08 09:42 | 42.87556 | 0.60513 | 34951 ft | 402 kts | 195° |
| 2026-05-08 09:42 | 42.82064 | 0.59089 | 34957 ft | 402 kts | 194° |
| 2026-05-08 09:43 | 42.76598 | 0.57677 | 34975 ft | 401 kts | 195° |
| 2026-05-08 09:43 | 42.71107 | 0.56251 | 34974 ft | 401 kts | 196° |
| 2026-05-08 09:44 | 42.65908 | 0.53726 | 34983 ft | 396 kts | 208° |
| 2026-05-08 09:44 | 42.60925 | 0.50464 | 34991 ft | 398 kts | 208° |
| 2026-05-08 09:45 | 42.55947 | 0.47240 | 34992 ft | 399 kts | 208° |
| 2026-05-08 09:45 | 42.50927 | 0.44025 | 34995 ft | 399 kts | 208° |
| 2026-05-08 09:46 | 42.45883 | 0.40812 | 34993 ft | 400 kts | 208° |
| 2026-05-08 09:46 | 42.40842 | 0.37609 | 35018 ft | 400 kts | 207° |
| 2026-05-08 09:47 | 42.35804 | 0.34413 | 35005 ft | 399 kts | 207° |
| 2026-05-08 09:47 | 42.30794 | 0.31241 | 35003 ft | 400 kts | 207° |
| 2026-05-08 09:48 | 42.25757 | 0.28057 | 35009 ft | 399 kts | 207° |
| 2026-05-08 09:48 | 42.20724 | 0.24883 | 35009 ft | 399 kts | 207° |
| 2026-05-08 09:49 | 42.15687 | 0.21714 | 35003 ft | 399 kts | 207° |
| 2026-05-08 09:49 | 42.10695 | 0.18575 | 35010 ft | 398 kts | 207° |
| 2026-05-08 09:50 | 42.05557 | 0.15793 | 35008 ft | 399 kts | 197° |
| 2026-05-08 09:50 | 42.00053 | 0.14696 | 35021 ft | 401 kts | 189° |
| 2026-05-08 09:51 | 41.94514 | 0.13900 | 35027 ft | 400 kts | 189° |
| 2026-05-08 09:51 | 41.89011 | 0.13095 | 35012 ft | 399 kts | 189° |
| 2026-05-08 09:52 | 41.83501 | 0.12277 | 35004 ft | 399 kts | 189° |
| 2026-05-08 09:52 | 41.77982 | 0.11453 | 35014 ft | 398 kts | 189° |
| 2026-05-08 09:53 | 41.72475 | 0.10631 | 35015 ft | 397 kts | 189° |
| 2026-05-08 09:53 | 41.67009 | 0.09817 | 35014 ft | 397 kts | 189° |
| 2026-05-08 09:54 | 41.61514 | 0.08999 | 35011 ft | 397 kts | 189° |
| 2026-05-08 09:54 | 41.56023 | 0.08184 | 35003 ft | 396 kts | 189° |
| 2026-05-08 09:55 | 41.50540 | 0.07372 | 35013 ft | 396 kts | 189° |
| 2026-05-08 09:55 | 41.45100 | 0.06567 | 35005 ft | 396 kts | 189° |
| 2026-05-08 09:56 | 41.39622 | 0.05759 | 35003 ft | 395 kts | 189° |
| 2026-05-08 09:56 | 41.34146 | 0.04952 | 35011 ft | 395 kts | 189° |
| 2026-05-08 09:57 | 41.25953 | 0.03749 | 35005 ft | 395 kts | 189° |
| 2026-05-08 09:57 | 41.20479 | 0.02949 | 35007 ft | 395 kts | 189° |
| 2026-05-08 09:58 | 41.15002 | 0.02151 | 34995 ft | 395 kts | 189° |
| 2026-05-08 09:58 | 41.09542 | 0.01352 | 34996 ft | 395 kts | 189° |
| 2026-05-08 09:59 | 41.04107 | 0.00557 | 35002 ft | 395 kts | 189° |
| 2026-05-08 09:59 | 40.98632 | -0.00237 | 35000 ft | 396 kts | 189° |
| 2026-05-08 10:00 | 40.93143 | -0.01040 | 35014 ft | 396 kts | 189° |
| 2026-05-08 10:00 | 40.87672 | -0.01836 | 35004 ft | 396 kts | 189° |
| 2026-05-08 10:01 | 40.82182 | -0.02631 | 34996 ft | 397 kts | 189° |
| 2026-05-08 10:01 | 40.76686 | -0.03422 | 35002 ft | 397 kts | 189° |
| 2026-05-08 10:02 | 40.71192 | -0.04210 | 35001 ft | 397 kts | 189° |
| 2026-05-08 10:02 | 40.65719 | -0.04992 | 34994 ft | 397 kts | 189° |
| 2026-05-08 10:03 | 40.60222 | -0.05778 | 35007 ft | 397 kts | 189° |
| 2026-05-08 10:03 | 40.54746 | -0.06761 | 34990 ft | 396 kts | 197° |
| 2026-05-08 10:04 | 40.49486 | -0.08863 | 34987 ft | 395 kts | 199° |
| 2026-05-08 10:04 | 40.44223 | -0.10986 | 34987 ft | 395 kts | 199° |
| 2026-05-08 10:05 | 40.38996 | -0.13055 | 34981 ft | 395 kts | 199° |
| 2026-05-08 10:05 | 40.33729 | -0.15123 | 34968 ft | 394 kts | 199° |
| 2026-05-08 10:06 | 40.28499 | -0.17174 | 34978 ft | 393 kts | 199° |
| 2026-05-08 10:06 | 40.23262 | -0.19233 | 34986 ft | 392 kts | 199° |
| 2026-05-08 10:07 | 40.18039 | -0.21305 | 34966 ft | 387 kts | 199° |
| 2026-05-08 10:07 | 40.15505 | -0.22307 | 34943 ft | 374 kts | 199° |
| 2026-05-08 10:07 | 40.13027 | -0.23285 | 34670 ft | 367 kts | 199° |
| 2026-05-08 10:08 | 40.10600 | -0.24241 | 34324 ft | 363 kts | 199° |
| 2026-05-08 10:08 | 40.08196 | -0.25187 | 34008 ft | 359 kts | 199° |
| 2026-05-08 10:08 | 40.05811 | -0.26125 | 33602 ft | 356 kts | 199° |
| 2026-05-08 10:08 | 40.03451 | -0.27054 | 33212 ft | 353 kts | 199° |
| 2026-05-08 10:09 | 40.01110 | -0.27975 | 32888 ft | 348 kts | 199° |
| 2026-05-08 10:09 | 39.98832 | -0.28866 | 32547 ft | 343 kts | 199° |
| 2026-05-08 10:09 | 39.96559 | -0.29742 | 32223 ft | 339 kts | 199° |
| 2026-05-08 10:09 | 39.94306 | -0.30608 | 31865 ft | 336 kts | 199° |
| 2026-05-08 10:10 | 39.92069 | -0.31469 | 31506 ft | 334 kts | 199° |
| 2026-05-08 10:10 | 39.89847 | -0.32325 | 31157 ft | 332 kts | 199° |
| 2026-05-08 10:10 | 39.87644 | -0.33175 | 30805 ft | 330 kts | 199° |
| 2026-05-08 10:10 | 39.85448 | -0.34033 | 30462 ft | 327 kts | 199° |
| 2026-05-08 10:11 | 39.83278 | -0.34883 | 30164 ft | 323 kts | 199° |
| 2026-05-08 10:11 | 39.81129 | -0.35723 | 29924 ft | 326 kts | 199° |
| 2026-05-08 10:11 | 39.78933 | -0.36581 | 29512 ft | 329 kts | 199° |
| 2026-05-08 10:11 | 39.76766 | -0.37423 | 29261 ft | 322 kts | 199° |
| 2026-05-08 10:12 | 39.75347 | -0.37974 | 29009 ft | 319 kts | 199° |
| 2026-05-08 10:12 | 39.72550 | -0.39061 | 28541 ft | 314 kts | 200° |
| 2026-05-08 10:12 | 39.70470 | -0.39861 | 28201 ft | 310 kts | 199° |
| 2026-05-08 10:12 | 39.68417 | -0.40648 | 27870 ft | 306 kts | 199° |
| 2026-05-08 10:13 | 39.66389 | -0.41446 | 27501 ft | 304 kts | 199° |
| 2026-05-08 10:13 | 39.64369 | -0.42210 | 27174 ft | 301 kts | 199° |
| 2026-05-08 10:13 | 39.63010 | -0.42727 | 26936 ft | 301 kts | 199° |
| 2026-05-08 10:13 | 39.61037 | -0.43488 | 26612 ft | 299 kts | 199° |
| 2026-05-08 10:14 | 39.59048 | -0.44260 | 26271 ft | 297 kts | 199° |
| 2026-05-08 10:14 | 39.57071 | -0.45027 | 25926 ft | 296 kts | 199° |
| 2026-05-08 10:14 | 39.55098 | -0.45791 | 25602 ft | 296 kts | 199° |
| 2026-05-08 10:14 | 39.53101 | -0.46564 | 25285 ft | 305 kts | 199° |
| 2026-05-08 10:15 | 39.51031 | -0.47364 | 24947 ft | 314 kts | 199° |
| 2026-05-08 10:15 | 39.48937 | -0.48171 | 24583 ft | 313 kts | 199° |
| 2026-05-08 10:15 | 39.46847 | -0.48951 | 24286 ft | 311 kts | 198° |
| 2026-05-08 10:15 | 39.44765 | -0.49698 | 23946 ft | 310 kts | 198° |
| 2026-05-08 10:16 | 39.42692 | -0.50435 | 23607 ft | 309 kts | 198° |
| 2026-05-08 10:16 | 39.40614 | -0.51172 | 23203 ft | 309 kts | 198° |
| 2026-05-08 10:16 | 39.38547 | -0.51906 | 22820 ft | 308 kts | 198° |
| 2026-05-08 10:16 | 39.36486 | -0.52641 | 22431 ft | 306 kts | 198° |